createdAt,value
2023-05-09T00:02:17.304Z,98648.52
2023-05-09T00:04:44.221Z,98645.91
2023-05-09T00:07:11.139Z,98641.67
2023-05-09T00:09:37.887Z,98635.63
2023-05-09T00:12:05.090Z,98636.99
2023-05-09T00:14:33.507Z,98633.25
2023-05-09T00:17:00.774Z,98626.82
2023-05-09T00:19:27.614Z,98625.02
2023-05-09T00:21:54.497Z,98624.24
2023-05-09T00:24:21.294Z,98625.15
2023-05-09T00:26:48.128Z,98629.95
2023-05-09T00:29:14.873Z,98630.45
2023-05-09T00:31:41.671Z,98633.27
2023-05-09T00:34:08.531Z,98634.04
2023-05-09T00:36:35.298Z,98637.50
2023-05-09T00:39:02.127Z,98640.29
2023-05-09T00:41:29.031Z,98636.74
2023-05-09T00:43:55.796Z,98636.27
2023-05-09T00:46:23.361Z,98639.25
2023-05-09T00:48:50.390Z,98638.20
2023-05-09T00:51:17.132Z,98639.66
2023-05-09T00:53:45.399Z,98641.40
2023-05-09T00:56:12.697Z,98638.31
2023-05-09T00:58:39.927Z,98637.30
2023-05-09T01:01:07.157Z,98636.22
2023-05-09T01:03:35.070Z,98639.66
2023-05-09T01:06:09.714Z,98640.54
2023-05-09T01:08:59.717Z,98643.45
2023-05-09T01:11:32.410Z,98638.94
2023-05-09T01:14:12.071Z,98641.80
2023-05-09T01:16:42.826Z,98643.73
2023-05-09T01:19:09.562Z,98637.13
2023-05-09T01:21:36.800Z,98639.31
2023-05-09T01:24:32.692Z,98640.19
2023-05-09T01:27:06.002Z,98644.41
2023-05-09T01:29:49.103Z,98638.50
2023-05-09T01:32:27.479Z,98638.81
2023-05-09T01:35:00.247Z,98638.13
2023-05-09T01:37:30.570Z,98635.85
2023-05-09T01:40:00.975Z,98637.05
2023-05-09T01:42:33.559Z,98632.51
2023-05-09T01:45:00.638Z,98632.61
2023-05-09T01:47:28.035Z,98631.81
2023-05-09T01:49:54.890Z,98630.33
2023-05-09T01:52:22.400Z,98633.79
2023-05-09T01:54:49.221Z,98632.04
2023-05-09T01:57:16.528Z,98636.23
2023-05-09T01:59:44.755Z,98632.73
2023-05-09T02:02:11.567Z,98632.98
2023-05-09T02:04:38.433Z,98630.37
2023-05-09T02:07:05.266Z,98628.22
2023-05-09T02:09:32.142Z,98626.53
2023-05-09T02:11:58.888Z,98628.38
2023-05-09T02:14:26.287Z,98627.33
2023-05-09T02:16:54.444Z,98625.23
2023-05-09T02:19:21.305Z,98622.49
2023-05-09T02:21:48.053Z,98626.37
2023-05-09T02:24:14.828Z,98624.38
2023-05-09T02:26:41.696Z,98621.29
2023-05-09T02:29:08.646Z,98620.73
2023-05-09T02:31:35.474Z,98619.35
2023-05-09T02:34:03.936Z,98617.64
2023-05-09T02:36:31.659Z,98621.54
2023-05-09T02:38:58.598Z,98623.07
2023-05-09T02:41:27.712Z,98622.38
2023-05-09T02:43:54.459Z,98623.48
2023-05-09T02:46:21.541Z,98626.45
2023-05-09T02:48:48.373Z,98624.01
2023-05-09T02:51:15.135Z,98618.98
2023-05-09T02:53:41.932Z,98620.87
2023-05-09T02:56:09.997Z,98619.09
2023-05-09T02:58:36.923Z,98622.52
2023-05-09T03:01:03.980Z,98622.87
2023-05-09T03:03:34.126Z,98622.59
2023-05-09T03:06:01.837Z,98622.99
2023-05-09T03:08:28.602Z,98622.92
2023-05-09T03:10:55.708Z,98625.27
2023-05-09T03:13:22.503Z,98623.93
2023-05-09T03:15:49.731Z,98622.48
2023-05-09T03:18:16.607Z,98625.35
2023-05-09T03:20:43.881Z,98623.62
2023-05-09T03:23:11.683Z,98626.63
2023-05-09T03:25:38.542Z,98627.33
2023-05-09T03:28:06.082Z,98630.46
2023-05-09T03:30:32.983Z,98631.48
2023-05-09T03:33:01.009Z,98632.91
2023-05-09T03:35:27.982Z,98635.80
2023-05-09T03:37:55.361Z,98636.64
2023-05-09T03:40:22.150Z,98637.40
2023-05-09T03:42:53.880Z,98638.86
2023-05-09T03:45:21.089Z,98636.85
2023-05-09T03:47:47.995Z,98635.73
2023-05-09T03:50:15.717Z,98637.29
2023-05-09T03:52:43.591Z,98641.71
2023-05-09T03:55:11.236Z,98640.67
2023-05-09T03:57:38.815Z,98641.66
2023-05-09T04:00:10.414Z,98642.67
2023-05-09T04:02:51.117Z,98641.59
2023-05-09T04:05:38.228Z,98640.92
2023-05-09T04:08:06.416Z,98641.80
2023-05-09T04:10:33.467Z,98644.59
2023-05-09T04:13:01.390Z,98644.30
2023-05-09T04:15:28.460Z,98648.94
2023-05-09T04:17:55.914Z,98646.65
2023-05-09T04:20:22.885Z,98646.86
2023-05-09T04:22:49.928Z,98650.10
2023-05-09T04:25:17.579Z,98649.49
2023-05-09T04:27:45.157Z,98647.23
2023-05-09T04:30:12.475Z,98648.48
2023-05-09T04:32:39.483Z,98646.84
2023-05-09T04:35:08.338Z,98648.11
2023-05-09T04:37:39.295Z,98646.98
2023-05-09T04:40:09.198Z,98649.36
2023-05-09T04:42:41.524Z,98649.11
2023-05-09T04:45:09.498Z,98654.86
2023-05-09T04:47:36.878Z,98654.25
2023-05-09T04:50:04.025Z,98654.27
2023-05-09T04:52:30.843Z,98658.30
2023-05-09T04:54:57.599Z,98658.26
2023-05-09T04:57:25.181Z,98658.96
2023-05-09T04:59:56.037Z,98656.55
2023-05-09T05:02:25.165Z,98656.63
2023-05-09T05:07:30.928Z,98651.63
2023-05-09T05:09:57.878Z,98654.09
2023-05-09T05:12:24.721Z,98650.45
2023-05-09T05:14:51.946Z,98654.75
2023-05-09T05:17:20.519Z,98656.09
2023-05-09T05:19:47.559Z,98658.82
2023-05-09T05:22:14.684Z,98660.74
2023-05-09T05:24:42.057Z,98656.52
2023-05-09T05:27:09.322Z,98657.75
2023-05-09T05:29:36.145Z,98658.59
2023-05-09T05:32:02.896Z,98660.11
2023-05-09T05:34:30.269Z,98660.23
2023-05-09T05:36:57.524Z,98659.61
2023-05-09T05:39:24.447Z,98655.69
2023-05-09T05:41:52.119Z,98656.23
2023-05-09T05:44:19.120Z,98658.42
2023-05-09T05:46:45.928Z,98658.17
2023-05-09T05:49:13.118Z,98656.58
2023-05-09T05:51:39.845Z,98656.92
2023-05-09T05:54:07.034Z,98655.93
2023-05-09T05:56:34.898Z,98656.15
2023-05-09T05:59:01.967Z,98657.68
2023-05-09T06:01:28.892Z,98657.38
2023-05-09T06:03:57.440Z,98658.67
2023-05-09T06:06:29.094Z,98659.27
2023-05-09T06:08:56.547Z,98660.53
2023-05-09T06:11:23.489Z,98659.13
2023-05-09T06:13:50.303Z,98660.45
2023-05-09T06:16:19.982Z,98661.23
2023-05-09T06:18:49.334Z,98662.23
2023-05-09T06:21:16.086Z,98660.45
2023-05-09T06:23:57.808Z,98656.80
2023-05-09T06:26:30.015Z,98657.98
2023-05-09T06:28:56.792Z,98654.40
2023-05-09T06:31:24.918Z,98658.35
2023-05-09T06:33:53.938Z,98661.53
2023-05-09T06:36:20.727Z,98658.15
2023-05-09T06:38:47.516Z,98657.36
2023-05-09T06:41:14.232Z,98656.34
2023-05-09T06:43:41.379Z,98655.86
2023-05-09T06:46:08.655Z,98651.92
2023-05-09T06:48:35.472Z,98653.71
2023-05-09T06:51:02.354Z,98653.28
2023-05-09T06:53:29.159Z,98656.23
2023-05-09T06:55:55.882Z,98658.52
2023-05-09T06:58:23.003Z,98659.30
2023-05-09T07:00:50.068Z,98656.77
2023-05-09T07:03:17.222Z,98653.25
2023-05-09T07:05:43.966Z,98657.27
2023-05-09T07:08:10.820Z,98656.33
2023-05-09T07:10:38.818Z,98652.08
2023-05-09T07:13:06.701Z,98650.57
2023-05-09T07:15:41.206Z,98646.64
2023-05-09T07:18:09.397Z,98643.48
2023-05-09T07:20:36.425Z,98644.19
2023-05-09T07:23:04.154Z,98636.60
2023-05-09T07:25:31.151Z,98639.56
2023-05-09T07:27:59.637Z,98635.67
2023-05-09T07:30:27.213Z,98633.52
2023-05-09T07:32:54.198Z,98633.64
2023-05-09T07:35:21.416Z,98631.00
2023-05-09T07:37:48.495Z,98629.78
2023-05-09T07:40:15.842Z,98629.80
2023-05-09T07:42:49.504Z,98629.05
2023-05-09T07:45:16.812Z,98629.02
2023-05-09T07:47:44.078Z,98627.08
2023-05-09T07:50:11.590Z,98621.51
2023-05-09T07:52:38.345Z,98618.17
2023-05-09T07:55:05.787Z,98617.02
2023-05-09T07:57:32.919Z,98616.88
2023-05-09T07:59:59.679Z,98614.50
2023-05-09T08:02:26.695Z,98617.99
2023-05-09T08:04:54.494Z,98619.07
2023-05-09T08:07:21.296Z,98616.70
2023-05-09T08:09:48.146Z,98618.10
2023-05-09T08:12:15.051Z,98611.20
2023-05-09T08:14:41.873Z,98606.38
2023-05-09T08:17:08.627Z,98606.17
2023-05-09T08:19:35.513Z,98598.95
2023-05-09T08:22:02.439Z,98593.06
2023-05-09T08:24:29.622Z,98591.45
2023-05-09T08:26:56.504Z,98591.61
2023-05-09T08:29:23.329Z,98592.61
2023-05-09T08:31:51.456Z,98598.38
2023-05-09T08:34:18.652Z,98604.95
2023-05-09T08:36:47.242Z,98596.97
2023-05-09T08:39:14.207Z,98600.36
2023-05-09T08:41:41.244Z,98594.47
2023-05-09T08:44:08.064Z,98595.73
2023-05-09T08:46:37.706Z,98597.11
2023-05-09T08:49:06.958Z,98600.15
2023-05-09T08:51:34.434Z,98592.64
2023-05-09T08:54:01.229Z,98590.17
2023-05-09T08:56:27.993Z,98592.30
2023-05-09T08:58:54.880Z,98586.46
2023-05-09T09:01:21.724Z,98584.33
2023-05-09T09:03:49.684Z,98583.89
2023-05-09T09:06:17.030Z,98584.25
2023-05-09T09:08:44.384Z,98581.71
2023-05-09T09:11:12.314Z,98589.70
2023-05-09T09:13:41.103Z,98588.46
2023-05-09T09:16:10.179Z,98584.50
2023-05-09T09:18:38.229Z,98580.15
2023-05-09T09:21:07.463Z,98580.77
2023-05-09T09:23:34.255Z,98582.39
2023-05-09T09:26:02.054Z,98580.71
2023-05-09T09:28:29.472Z,98579.86
2023-05-09T09:30:56.617Z,98574.55
2023-05-09T09:33:25.008Z,98570.71
2023-05-09T09:35:52.878Z,98573.17
2023-05-09T09:38:23.501Z,98572.41
2023-05-09T09:40:54.880Z,98566.38
2023-05-09T09:43:27.915Z,98566.70
2023-05-09T09:45:54.828Z,98569.88
2023-05-09T09:48:26.721Z,98565.60
2023-05-09T09:50:59.896Z,98573.34
2023-05-09T09:53:31.132Z,98565.77
2023-05-09T09:55:58.835Z,98561.81
2023-05-09T09:58:25.724Z,98557.16
2023-05-09T10:01:06.261Z,98561.77
2023-05-09T10:03:37.685Z,98563.05
2023-05-09T10:06:05.606Z,98559.85
2023-05-09T10:08:32.389Z,98560.49
2023-05-09T10:10:59.762Z,98551.96
2023-05-09T10:13:27.207Z,98549.46
2023-05-09T10:15:55.714Z,98550.79
2023-05-09T10:18:26.671Z,98548.11
2023-05-09T10:20:55.104Z,98545.43
2023-05-09T10:23:23.407Z,98550.07
2023-05-09T10:25:58.512Z,98547.91
2023-05-09T10:28:27.999Z,98547.09
2023-05-09T10:31:13.878Z,98546.09
2023-05-09T10:33:49.502Z,98549.45
2023-05-09T10:36:20.875Z,98545.29
2023-05-09T10:38:49.022Z,98547.60
2023-05-09T10:41:19.030Z,98542.29
2023-05-09T10:43:46.175Z,98532.84
2023-05-09T10:46:13.224Z,98536.94
2023-05-09T10:48:40.253Z,98530.88
2023-05-09T10:51:08.078Z,98533.42
2023-05-09T10:53:42.635Z,98537.68
2023-05-09T10:56:09.458Z,98536.49
2023-05-09T10:58:37.530Z,98529.73
2023-05-09T11:01:05.070Z,98529.33
2023-05-09T11:03:52.785Z,98527.10
2023-05-09T11:06:42.326Z,98515.59
2023-05-09T11:09:28.632Z,98507.98
2023-05-09T11:11:58.651Z,98506.25
2023-05-09T11:14:29.731Z,98508.66
2023-05-09T11:17:00.788Z,98506.36
2023-05-09T11:19:43.058Z,98500.27
2023-05-09T11:22:16.985Z,98499.89
2023-05-09T11:24:59.690Z,98496.27
2023-05-09T11:27:28.360Z,98496.27
2023-05-09T11:29:59.156Z,98497.73
2023-05-09T11:32:31.843Z,98492.67
2023-05-09T11:35:10.221Z,98494.08
2023-05-09T11:37:47.116Z,98495.61
2023-05-09T11:40:15.304Z,98491.17
2023-05-09T11:42:44.146Z,98489.89
2023-05-09T11:45:12.001Z,98491.20
2023-05-09T11:47:39.126Z,98487.14
2023-05-09T11:50:10.267Z,98481.76
2023-05-09T11:52:40.533Z,98481.03
2023-05-09T11:55:12.716Z,98477.62
2023-05-09T11:57:45.076Z,98476.00
2023-05-09T12:00:12.739Z,98471.32
2023-05-09T12:02:39.589Z,98465.50
2023-05-09T12:05:10.857Z,98464.02
2023-05-09T12:07:38.313Z,98463.39
2023-05-09T12:10:25.519Z,98463.33
2023-05-09T12:12:53.220Z,98461.16
2023-05-09T12:15:21.867Z,98456.92
2023-05-09T12:18:00.998Z,98447.80
2023-05-09T12:20:27.868Z,98444.27
2023-05-09T12:22:54.703Z,98440.59
2023-05-09T12:25:22.289Z,98438.04
2023-05-09T12:27:49.120Z,98434.79
2023-05-09T12:30:16.253Z,98433.23
2023-05-09T12:32:43.969Z,98422.73
2023-05-09T12:35:11.286Z,98422.39
2023-05-09T12:37:38.625Z,98417.27
2023-05-09T12:40:07.232Z,98417.23
2023-05-09T12:42:35.074Z,98417.73
2023-05-09T12:45:03.349Z,98412.60
2023-05-09T12:47:31.361Z,98409.72
2023-05-09T12:50:02.110Z,98409.80
2023-05-09T12:52:46.898Z,98404.92
2023-05-09T12:55:21.340Z,98402.09
2023-05-09T12:58:02.047Z,98402.02
2023-05-09T13:00:28.974Z,98399.48
2023-05-09T13:02:55.973Z,98402.96
2023-05-09T13:05:23.348Z,98405.70
2023-05-09T13:07:52.491Z,98404.84
2023-05-09T13:10:27.594Z,98405.05
2023-05-09T13:12:54.966Z,98402.75
2023-05-09T13:15:27.068Z,98401.60
2023-05-09T13:17:54.407Z,98393.34
2023-05-09T13:20:21.556Z,98386.73
2023-05-09T13:22:48.787Z,98382.34
2023-05-09T13:25:17.055Z,98380.74
2023-05-09T13:27:43.957Z,98380.96
2023-05-09T13:30:12.911Z,98381.36
2023-05-09T13:32:40.760Z,98376.94
2023-05-09T13:35:08.426Z,98375.11
2023-05-09T13:37:35.794Z,98375.11
2023-05-09T13:40:03.340Z,98366.27
2023-05-09T13:42:31.353Z,98363.48
2023-05-09T13:44:58.728Z,98358.16
2023-05-09T13:47:26.097Z,98349.77
2023-05-09T13:49:53.150Z,98355.91
2023-05-09T13:52:20.018Z,98358.79
2023-05-09T13:54:47.207Z,98356.34
2023-05-09T13:57:14.093Z,98355.54
2023-05-09T13:59:43.782Z,98355.56
2023-05-09T14:02:13.504Z,98353.16
2023-05-09T14:04:41.565Z,98350.71
2023-05-09T14:07:11.134Z,98345.29
2023-05-09T14:09:40.275Z,98342.89
2023-05-09T14:12:07.235Z,98341.98
2023-05-09T14:14:34.366Z,98340.39
2023-05-09T14:17:01.967Z,98345.84
2023-05-09T14:19:28.809Z,98343.14
2023-05-09T14:21:55.851Z,98341.63
2023-05-09T14:24:22.713Z,98338.77
2023-05-09T14:26:49.475Z,98343.20
2023-05-09T14:29:16.784Z,98340.14
2023-05-09T14:31:43.563Z,98345.20
2023-05-09T14:34:11.597Z,98342.48
2023-05-09T14:36:38.592Z,98339.08
2023-05-09T14:39:06.387Z,98336.86
2023-05-09T14:41:33.160Z,98332.86
2023-05-09T14:44:00.385Z,98326.02
2023-05-09T14:46:27.264Z,98323.27
2023-05-09T14:48:54.250Z,98323.10
2023-05-09T14:51:21.178Z,98321.47
2023-05-09T14:53:48.131Z,98321.58
2023-05-09T14:56:15.111Z,98320.63
2023-05-09T14:58:42.480Z,98314.34
2023-05-09T15:01:09.349Z,98306.73
2023-05-09T15:03:36.329Z,98311.77
2023-05-09T15:06:03.424Z,98311.17
2023-05-09T15:08:30.816Z,98303.45
2023-05-09T15:10:57.868Z,98303.44
2023-05-09T15:13:24.759Z,98297.83
2023-05-09T15:15:51.739Z,98295.21
2023-05-09T15:18:20.190Z,98289.39
2023-05-09T15:20:47.022Z,98283.52
2023-05-09T15:23:13.842Z,98281.75
2023-05-09T15:25:43.197Z,98283.54
2023-05-09T15:28:10.221Z,98278.29
2023-05-09T15:30:38.965Z,98279.83
2023-05-09T15:33:06.682Z,98274.80
2023-05-09T15:35:33.591Z,98277.41
2023-05-09T15:38:00.372Z,98276.85
2023-05-09T15:40:28.311Z,98270.17
2023-05-09T15:42:55.065Z,98271.75
2023-05-09T15:45:21.817Z,98268.44
2023-05-09T15:47:48.836Z,98266.77
2023-05-09T15:50:16.225Z,98269.30
2023-05-09T15:52:43.516Z,98266.23
2023-05-09T15:55:10.786Z,98265.59
2023-05-09T15:57:37.888Z,98258.73
2023-05-09T16:00:05.639Z,98253.95
2023-05-09T16:02:39.691Z,98247.50
2023-05-09T16:05:07.195Z,98245.68
2023-05-09T16:07:35.490Z,98243.99
2023-05-09T16:10:03.313Z,98242.85
2023-05-09T16:12:32.860Z,98239.80
2023-05-09T16:15:00.081Z,98239.74
2023-05-09T16:17:27.150Z,98237.23
2023-05-09T16:19:55.394Z,98234.93
2023-05-09T16:22:23.637Z,98234.15
2023-05-09T16:24:50.842Z,98229.95
2023-05-09T16:27:17.691Z,98233.41
2023-05-09T16:29:44.583Z,98228.81
2023-05-09T16:32:11.565Z,98229.23
2023-05-09T16:34:38.602Z,98224.95
2023-05-09T16:37:05.414Z,98225.65
2023-05-09T16:39:32.377Z,98220.11
2023-05-09T16:41:59.755Z,98218.49
2023-05-09T16:44:26.752Z,98217.09
2023-05-09T16:46:53.708Z,98223.11
2023-05-09T16:49:20.569Z,98221.96
2023-05-09T16:51:47.551Z,98222.95
2023-05-09T16:54:14.346Z,98225.20
2023-05-09T16:56:42.343Z,98224.70
2023-05-09T16:59:09.368Z,98224.79
2023-05-09T17:01:36.453Z,98221.77
2023-05-09T17:04:06.899Z,98222.46
2023-05-09T17:06:36.702Z,98221.70
2023-05-09T17:09:04.043Z,98221.24
2023-05-09T17:11:30.934Z,98225.69
2023-05-09T17:13:57.683Z,98221.65
2023-05-09T17:16:24.487Z,98221.77
2023-05-09T17:18:52.170Z,98222.17
2023-05-09T17:21:20.478Z,98222.30
2023-05-09T17:24:49.122Z,98221.41
2023-05-09T17:27:15.884Z,98219.38
2023-05-09T17:29:42.866Z,98221.21
2023-05-09T17:32:10.325Z,98220.77
2023-05-09T17:34:38.147Z,98221.87
2023-05-09T17:37:09.245Z,98220.14
2023-05-09T17:39:39.276Z,98224.73
2023-05-09T17:42:07.025Z,98225.55
2023-05-09T17:44:33.979Z,98220.94
2023-05-09T17:47:01.562Z,98221.65
2023-05-09T17:49:29.511Z,98224.20
2023-05-09T17:51:59.887Z,98220.73
2023-05-09T17:54:26.702Z,98217.89
2023-05-09T17:56:59.152Z,98215.48
2023-05-09T17:59:26.148Z,98215.48
2023-05-09T18:01:53.362Z,98211.83
2023-05-09T18:04:21.065Z,98213.88
2023-05-09T18:06:51.036Z,98211.67
2023-05-09T18:09:17.945Z,98213.61
2023-05-09T18:11:44.824Z,98213.73
2023-05-09T18:14:13.098Z,98212.63
2023-05-09T18:16:40.227Z,98215.52
2023-05-09T18:19:07.213Z,98220.48
2023-05-09T18:21:34.052Z,98221.95
2023-05-09T18:24:01.381Z,98221.12
2023-05-09T18:26:28.788Z,98226.28
2023-05-09T18:28:55.559Z,98229.04
2023-05-09T18:31:22.476Z,98228.00
2023-05-09T18:33:49.310Z,98229.48
2023-05-09T18:36:16.063Z,98227.06
2023-05-09T18:38:43.688Z,98229.77
2023-05-09T18:41:11.852Z,98230.67
2023-05-09T18:43:45.864Z,98232.27
2023-05-09T18:46:17.591Z,98235.28
2023-05-09T18:48:45.725Z,98235.71
2023-05-09T18:51:12.640Z,98238.04
2023-05-09T18:53:39.473Z,98242.19
2023-05-09T18:56:06.451Z,98237.73
2023-05-09T18:58:33.294Z,98237.56
2023-05-09T19:01:01.124Z,98233.85
2023-05-09T19:03:28.561Z,98230.45
2023-05-09T19:05:55.534Z,98237.23
2023-05-09T19:08:23.181Z,98236.48
2023-05-09T19:10:50.026Z,98235.31
2023-05-09T19:13:17.008Z,98235.44
2023-05-09T19:15:44.329Z,98240.15
2023-05-09T19:18:11.630Z,98234.77
2023-05-09T19:20:38.586Z,98239.05
2023-05-09T19:23:05.567Z,98238.12
2023-05-09T19:25:34.972Z,98236.60
2023-05-09T19:28:02.075Z,98235.39
2023-05-09T19:30:28.996Z,98238.85
2023-05-09T19:32:56.250Z,98241.47
2023-05-09T19:35:23.590Z,98238.78
2023-05-09T19:37:50.895Z,98236.98
2023-05-09T19:40:18.191Z,98231.33
2023-05-09T19:42:45.247Z,98233.95
2023-05-09T19:45:12.226Z,98234.89
2023-05-09T19:47:39.223Z,98233.85
2023-05-09T19:50:06.888Z,98233.11
2023-05-09T19:52:36.248Z,98234.77
2023-05-09T19:55:04.088Z,98232.89
2023-05-09T19:57:31.478Z,98230.95
2023-05-09T19:59:58.378Z,98230.11
2023-05-09T20:02:25.427Z,98229.92
2023-05-09T20:04:54.257Z,98230.05
2023-05-09T20:07:22.395Z,98231.48
2023-05-09T20:09:49.496Z,98233.91
2023-05-09T20:12:16.820Z,98234.66
2023-05-09T20:14:44.760Z,98232.20
2023-05-09T20:17:11.678Z,98233.66
2023-05-09T20:19:38.479Z,98232.67
2023-05-09T20:22:05.680Z,98229.03
2023-05-09T20:24:32.817Z,98225.98
2023-05-09T20:26:59.745Z,98222.09
2023-05-09T20:29:27.010Z,98224.59
2023-05-09T20:31:54.130Z,98225.70
2023-05-09T20:34:22.990Z,98224.59
2023-05-09T20:36:54.063Z,98221.33
2023-05-09T20:39:21.209Z,98221.45
2023-05-09T20:41:48.251Z,98221.58
2023-05-09T20:44:15.769Z,98223.98
2023-05-09T20:46:43.501Z,98223.19
2023-05-09T20:49:10.497Z,98226.39
2023-05-09T20:51:38.179Z,98224.57
2023-05-09T20:54:05.078Z,98227.01
2023-05-09T20:56:33.327Z,98225.53
2023-05-09T20:59:01.108Z,98224.77
2023-05-09T21:01:28.134Z,98224.21
2023-05-09T21:03:55.449Z,98221.09
2023-05-09T21:06:22.179Z,98217.58
2023-05-09T21:08:49.057Z,98215.73
2023-05-09T21:11:16.041Z,98215.98
2023-05-09T21:13:42.793Z,98215.64
2023-05-09T21:16:09.726Z,98218.41
2023-05-09T21:18:36.472Z,98221.23
2023-05-09T21:21:07.009Z,98221.23
2023-05-09T21:23:34.738Z,98221.36
2023-05-09T21:26:02.652Z,98221.44
2023-05-09T21:28:29.848Z,98220.39
2023-05-09T21:30:57.086Z,98216.49
2023-05-09T21:33:24.122Z,98213.95
2023-05-09T21:35:51.178Z,98213.83
2023-05-09T21:38:18.533Z,98214.33
2023-05-09T21:40:45.876Z,98210.54
2023-05-09T21:43:13.051Z,98212.74
2023-05-09T21:45:40.896Z,98213.52
2023-05-09T21:48:08.158Z,98215.23
2023-05-09T21:50:35.216Z,98214.58
2023-05-09T21:53:02.265Z,98218.42
2023-05-09T21:55:29.340Z,98220.52
2023-05-09T21:57:56.335Z,98219.02
2023-05-09T22:00:23.481Z,98216.16
2023-05-09T22:02:50.644Z,98214.98
2023-05-09T22:05:18.084Z,98212.55
2023-05-09T22:07:45.031Z,98213.42
2023-05-09T22:10:12.250Z,98213.05
2023-05-09T22:12:39.574Z,98212.95
2023-05-09T22:15:07.712Z,98213.64
2023-05-09T22:17:35.200Z,98209.23
2023-05-09T22:20:02.015Z,98210.20
2023-05-09T22:22:29.823Z,98210.02
2023-05-09T22:24:56.672Z,98207.15
2023-05-09T22:27:23.493Z,98202.79
2023-05-09T22:29:50.490Z,98203.33
2023-05-09T22:32:17.874Z,98200.73
2023-05-09T22:34:48.182Z,98200.98
2023-05-09T22:37:15.392Z,98198.36
2023-05-09T22:39:44.662Z,98199.86
2023-05-09T22:42:12.130Z,98196.96
2023-05-09T22:44:39.714Z,98194.92
2023-05-09T22:47:09.975Z,98195.05
2023-05-09T22:49:37.886Z,98192.27
2023-05-09T22:52:04.988Z,98192.87
2023-05-09T22:54:32.316Z,98189.36
2023-05-09T22:56:59.361Z,98185.98
2023-05-09T22:59:26.856Z,98186.67
2023-05-09T23:01:53.803Z,98186.70
2023-05-09T23:04:20.908Z,98183.66
2023-05-09T23:06:47.701Z,98182.08
2023-05-09T23:09:14.479Z,98183.88
2023-05-09T23:11:41.263Z,98180.98
2023-05-09T23:14:08.165Z,98181.57
2023-05-09T23:16:35.155Z,98182.23
2023-05-09T23:19:02.492Z,98181.89
2023-05-09T23:21:30.399Z,98181.85
2023-05-09T23:23:57.277Z,98181.34
2023-05-09T23:26:24.023Z,98182.59
2023-05-09T23:28:50.910Z,98181.46
2023-05-09T23:31:18.075Z,98179.96
2023-05-09T23:33:44.913Z,98175.80
2023-05-09T23:36:11.866Z,98179.03
2023-05-09T23:38:38.863Z,98178.29
2023-05-09T23:41:05.846Z,98180.64
2023-05-09T23:43:32.882Z,98176.05
2023-05-09T23:45:59.844Z,98178.35
2023-05-09T23:48:27.038Z,98175.83
2023-05-09T23:50:53.789Z,98174.77
2023-05-09T23:53:20.656Z,98174.52
2023-05-09T23:55:47.467Z,98174.77
2023-05-09T23:58:14.201Z,98173.86
